Amagansett, New York
Current Conditions -  °F | °C
As of 11:56 PM on Friday 21 Nov 2014 (Local Time) from KGON Reporting Station
Clear Clear  
Wind Chill: 18°   Ceiling: Unl
Heat Index: 25°   Visibility: 9mi
Dew Point: 11°   Wind: 6mph
Humidity: 55%   Direction: 280°W
Pressure: 30.48"   Gusts: NA
Location:  40.97°N, 72.14°W
Report Text: KGON 220456Z AUTO 28005KT 9SM CLR M04/M12 A3048 RMK AO2 SLP319 T10391117 400221039
Loading
Personal Weather Stations






























Interactive Weather Map New forecast layout! Learn more

10-Day Weather Forecast

Advertisements
Track Severe Weather on mobile